createdAt,value
2019-06-26T00:13:24.834Z,56.18
2019-06-26T00:58:05.707Z,50.58
2019-06-26T01:01:39.625Z,50.50
2019-06-26T01:19:38.765Z,48.23
2019-06-26T01:23:14.810Z,52.35
2019-06-26T01:36:34.682Z,57.17
2019-06-26T01:48:51.760Z,58.83
2019-06-26T01:52:39.927Z,59.27
2019-06-26T01:56:21.776Z,62.43
2019-06-26T02:34:51.804Z,59.55
2019-06-26T02:49:35.812Z,62.53
2019-06-26T03:16:38.679Z,45.83
2019-06-26T03:50:42.713Z,38.17
2019-06-26T06:25:33.961Z,27.73
2019-06-26T06:28:28.881Z,28.60
2019-06-26T06:31:03.452Z,27.58
2019-06-26T06:33:35.567Z,28.38
2019-06-26T06:36:09.863Z,27.05
2019-06-26T06:41:31.486Z,26.90
2019-06-26T06:44:04.893Z,28.83
2019-06-26T06:46:36.440Z,28.95
2019-06-26T06:49:08.145Z,28.57
2019-06-26T06:52:01.917Z,28.38
2019-06-26T06:54:40.439Z,26.90
2019-06-26T06:57:13.806Z,28.02
2019-06-26T06:59:50.002Z,28.95
2019-06-26T07:02:20.761Z,28.87
2019-06-26T07:04:53.940Z,29.27
2019-06-26T07:07:25.676Z,30.68
2019-06-26T07:09:57.948Z,29.95
2019-06-26T07:12:51.604Z,31.42
2019-06-26T07:15:28.300Z,30.82
2019-06-26T07:18:10.844Z,30.65
2019-06-26T07:21:33.393Z,32.42
2019-06-26T07:24:05.621Z,30.25
2019-06-26T07:27:10.490Z,28.30
2019-06-26T07:30:03.673Z,28.52
2019-06-26T07:33:18.349Z,29.23
2019-06-26T07:35:51.498Z,29.75
2019-06-26T07:38:25.195Z,27.85
2019-06-26T07:41:03.548Z,29.60
2019-06-26T07:43:36.501Z,28.02
2019-06-26T07:46:08.669Z,25.62
2019-06-26T07:48:42.919Z,25.85
2019-06-26T07:54:34.243Z,28.55
2019-06-26T07:57:20.372Z,27.27
2019-06-26T07:59:51.197Z,30.02
2019-06-26T08:02:22.658Z,28.35
2019-06-26T08:04:53.519Z,28.12
2019-06-26T08:07:25.155Z,26.80
2019-06-26T08:09:57.529Z,28.20
2019-06-26T08:12:28.403Z,26.70
2019-06-26T08:15:01.902Z,26.70
2019-06-26T08:17:34.154Z,28.25
2019-06-26T08:20:08.052Z,27.27
2019-06-26T08:22:42.254Z,27.58
2019-06-26T08:25:13.122Z,26.65
2019-06-26T08:27:43.626Z,26.90
2019-06-26T08:30:16.432Z,24.87
2019-06-26T08:35:23.727Z,24.67
2019-06-26T08:38:10.222Z,24.77
2019-06-26T08:40:34.588Z,23.85
2019-06-26T08:43:05.889Z,23.75
2019-06-26T08:52:13.591Z,21.50
2019-06-26T08:54:44.547Z,20.17
2019-06-26T08:57:15.417Z,20.60
2019-06-26T08:59:45.929Z,19.02
2019-06-26T09:05:09.188Z,19.15
2019-06-26T09:07:40.701Z,19.55
2019-06-26T09:10:16.699Z,19.20
2019-06-26T09:12:50.274Z,19.32
2019-06-26T09:15:21.495Z,19.82
2019-06-26T09:21:19.530Z,20.60
2019-06-26T09:24:30.846Z,20.37
2019-06-26T09:30:00.134Z,24.63
2019-06-26T09:32:32.054Z,29.95
2019-06-26T09:35:18.546Z,31.17
2019-06-26T09:37:51.916Z,30.88
2019-06-26T09:40:22.437Z,30.15
2019-06-26T09:42:53.625Z,34.00
2019-06-26T09:45:26.117Z,32.38
2019-06-26T09:50:38.690Z,31.42
2019-06-26T09:53:09.507Z,33.02
2019-06-26T09:55:40.085Z,31.85
2019-06-26T09:58:13.588Z,31.70
2019-06-26T10:00:45.107Z,32.80
2019-06-26T10:03:15.479Z,32.48
2019-06-26T10:05:45.843Z,32.05
2019-06-26T10:08:33.860Z,30.90
2019-06-26T11:00:33.063Z,33.70
2019-06-26T11:03:03.772Z,34.70
2019-06-26T11:05:34.088Z,33.67
2019-06-26T11:08:06.606Z,33.78
2019-06-26T11:10:36.991Z,36.73
2019-06-26T11:13:07.655Z,35.55
2019-06-26T11:15:37.808Z,35.00
2019-06-26T11:18:08.064Z,36.53
2019-06-26T11:20:38.210Z,36.48
2019-06-26T11:23:08.398Z,34.78
2019-06-26T11:25:39.348Z,37.33
2019-06-26T11:28:09.883Z,35.48
2019-06-26T11:30:40.201Z,36.90
2019-06-26T11:33:10.490Z,35.85
2019-06-26T11:35:40.744Z,33.25
2019-06-26T11:38:10.892Z,31.07
2019-06-26T11:40:41.424Z,32.73
2019-06-26T11:43:11.572Z,33.48
2019-06-26T11:45:41.738Z,32.60
2019-06-26T11:48:12.038Z,33.23
2019-06-26T11:50:42.279Z,36.15
2019-06-26T11:53:12.533Z,33.25
2019-06-26T11:55:42.753Z,37.83
2019-06-26T11:58:13.013Z,36.98
2019-06-26T12:00:43.287Z,35.20
2019-06-26T12:03:13.537Z,37.15
2019-06-26T12:05:43.661Z,36.53
2019-06-26T12:08:13.901Z,35.25
2019-06-26T12:10:44.179Z,36.48
2019-06-26T12:13:14.413Z,37.17
2019-06-26T12:15:44.658Z,35.52
2019-06-26T12:18:15.272Z,34.63
2019-06-26T12:20:45.714Z,35.90
2019-06-26T12:23:15.869Z,34.70
2019-06-26T12:25:46.722Z,36.58
2019-06-26T12:28:38.141Z,37.60
2019-06-26T12:31:35.007Z,38.10
2019-06-26T12:34:06.790Z,36.80
2019-06-26T12:36:36.931Z,37.70
2019-06-26T12:39:09.812Z,38.00
2019-06-26T12:41:39.997Z,38.00
2019-06-26T12:44:11.734Z,37.60
2019-06-26T12:46:42.195Z,36.88
2019-06-26T12:49:12.366Z,35.33
2019-06-26T12:51:42.782Z,38.83
2019-06-26T12:57:19.129Z,35.25
2019-06-26T12:59:57.427Z,36.48
2019-06-26T13:02:22.654Z,37.38
2019-06-26T13:04:53.936Z,38.58
2019-06-26T13:07:24.698Z,38.15
2019-06-26T13:09:55.877Z,35.48
2019-06-26T13:12:26.279Z,39.10
2019-06-26T13:14:56.460Z,40.40
2019-06-26T13:17:26.595Z,37.50
2019-06-26T13:19:56.795Z,37.00
2019-06-26T13:22:27.369Z,30.48
2019-06-26T13:24:57.436Z,26.10
2019-06-26T13:27:27.713Z,27.60
2019-06-26T13:29:57.865Z,28.45
2019-06-26T13:32:28.357Z,28.45
2019-06-26T13:34:58.664Z,27.30
2019-06-26T13:37:28.896Z,25.32
2019-06-26T13:39:59.425Z,25.50
2019-06-26T13:42:29.686Z,22.07
2019-06-26T13:45:00.023Z,24.75
2019-06-26T13:47:30.302Z,20.72
2019-06-26T13:50:00.579Z,19.12
2019-06-26T13:52:30.869Z,18.30
2019-06-26T13:55:01.106Z,20.57
2019-06-26T13:57:31.317Z,17.75
2019-06-26T14:00:01.559Z,17.90
2019-06-26T14:02:31.796Z,17.98
2019-06-26T14:05:02.713Z,16.67
2019-06-26T14:07:32.983Z,15.85
2019-06-26T14:10:03.215Z,16.40
2019-06-26T14:12:33.359Z,15.23
2019-06-26T14:15:03.732Z,15.20
2019-06-26T14:17:34.044Z,15.23
2019-06-26T14:20:04.416Z,13.70
2019-06-26T14:22:34.570Z,15.43
2019-06-26T14:25:05.367Z,12.73
2019-06-26T14:27:35.424Z,14.35
2019-06-26T14:30:06.637Z,13.68
2019-06-26T14:32:36.864Z,12.10
2019-06-26T14:35:07.090Z,12.45
2019-06-26T14:37:37.344Z,12.65
2019-06-26T14:40:07.730Z,11.83
2019-06-26T14:42:37.981Z,12.28
2019-06-26T14:45:08.444Z,10.82
2019-06-26T14:47:38.659Z,8.50
2019-06-26T14:50:11.227Z,7.42
2019-06-26T14:52:41.476Z,6.95
2019-06-26T14:55:12.837Z,7.58
2019-06-26T14:57:43.176Z,6.95
2019-06-26T15:00:15.454Z,6.75
2019-06-26T15:02:45.750Z,6.62
2019-06-26T15:05:17.306Z,6.70
2019-06-26T15:07:50.121Z,7.03
2019-06-26T15:10:20.073Z,6.97
2019-06-26T15:12:53.099Z,7.53
2019-06-26T15:15:23.441Z,7.35
2019-06-26T15:17:53.760Z,6.83
2019-06-26T15:20:24.033Z,5.80
2019-06-26T15:22:58.666Z,6.65
2019-06-26T15:25:27.183Z,7.83
2019-06-26T15:27:57.377Z,7.58
2019-06-26T15:30:27.530Z,7.03
2019-06-26T15:32:57.807Z,7.70
2019-06-26T15:35:28.079Z,7.25
2019-06-26T15:37:58.267Z,7.35
2019-06-26T15:40:28.500Z,6.80
2019-06-26T15:42:58.795Z,7.33
2019-06-26T15:45:29.044Z,6.90
2019-06-26T15:47:59.249Z,6.20
2019-06-26T15:50:29.495Z,5.37
2019-06-26T15:52:59.827Z,5.92
2019-06-26T15:55:30.004Z,6.05
2019-06-26T15:58:05.354Z,6.03
2019-06-26T16:00:36.512Z,5.83
2019-06-26T16:03:06.780Z,6.28
2019-06-26T16:05:37.100Z,5.40
2019-06-26T16:08:07.338Z,5.78
2019-06-26T16:10:37.498Z,6.00
2019-06-26T16:13:07.752Z,5.55
2019-06-26T16:15:38.747Z,5.83
2019-06-26T16:18:25.638Z,5.28
2019-06-26T16:20:55.904Z,5.60
2019-06-26T16:23:27.324Z,5.62
2019-06-26T16:25:57.465Z,5.08
2019-06-26T16:28:27.703Z,4.85
2019-06-26T16:30:58.107Z,4.75
2019-06-26T16:33:28.429Z,4.60
2019-06-26T16:35:58.740Z,4.37
2019-06-26T16:38:31.767Z,4.55
2019-06-26T16:41:02.259Z,4.25
2019-06-26T16:43:32.303Z,3.90
2019-06-26T16:46:02.538Z,4.05
2019-06-26T16:48:32.762Z,4.08
2019-06-26T16:51:03.104Z,4.12
2019-06-26T16:53:35.502Z,3.70
2019-06-26T16:56:05.425Z,4.40
2019-06-26T16:58:35.557Z,3.90
2019-06-26T17:01:06.412Z,3.37
2019-06-26T17:03:36.554Z,3.80
2019-06-26T17:06:07.312Z,3.55
2019-06-26T17:08:37.580Z,3.40
2019-06-26T17:11:07.826Z,3.42
2019-06-26T17:13:38.068Z,3.80
2019-06-26T17:16:08.388Z,2.98
2019-06-26T17:18:50.524Z,3.27
2019-06-26T17:21:23.082Z,4.15
2019-06-26T17:23:53.678Z,2.95
2019-06-26T17:26:23.918Z,3.33
2019-06-26T17:28:54.010Z,3.08
2019-06-26T17:31:24.219Z,3.50
2019-06-26T17:33:54.392Z,3.75
2019-06-26T17:36:24.668Z,3.60
2019-06-26T17:39:21.652Z,3.45
2019-06-26T17:41:52.820Z,3.30
2019-06-26T17:44:22.946Z,3.27
2019-06-26T17:50:03.849Z,3.67
2019-06-26T17:52:38.095Z,3.50
2019-06-26T17:55:12.322Z,3.50
2019-06-26T17:57:42.473Z,3.45
2019-06-26T18:03:26.035Z,3.47
2019-06-26T18:05:56.485Z,3.75
2019-06-26T18:08:28.167Z,3.40
2019-06-26T18:10:58.392Z,3.52
2019-06-26T18:13:36.079Z,3.83
2019-06-26T18:16:45.518Z,3.98
2019-06-26T18:19:29.445Z,3.85
2019-06-26T18:22:01.159Z,3.70
2019-06-26T18:24:43.404Z,3.70
2019-06-26T18:27:19.153Z,3.45
2019-06-26T18:30:01.657Z,3.83
2019-06-26T18:32:33.138Z,4.42
2019-06-26T18:35:07.106Z,3.60
2019-06-26T18:37:53.122Z,3.58
2019-06-26T18:40:23.621Z,2.98
2019-06-26T18:42:54.165Z,3.22
2019-06-26T18:45:28.448Z,3.12
2019-06-26T18:48:00.647Z,2.92
2019-06-26T18:50:31.464Z,2.55
2019-06-26T18:53:13.973Z,3.27
2019-06-26T18:55:44.778Z,3.55
2019-06-26T18:58:15.697Z,3.30
2019-06-26T19:00:46.844Z,2.98
2019-06-26T19:03:21.270Z,2.90
2019-06-26T19:05:52.346Z,3.40
2019-06-26T19:08:26.139Z,2.90
2019-06-26T19:10:57.788Z,2.75
2019-06-26T19:13:28.630Z,2.67
2019-06-26T19:16:06.847Z,2.58
2019-06-26T19:18:39.550Z,3.70
2019-06-26T19:21:13.130Z,3.05
2019-06-26T19:23:46.880Z,3.40
2019-06-26T19:26:50.366Z,3.25
2019-06-26T19:29:24.009Z,3.65
2019-06-26T19:31:54.448Z,3.87
2019-06-26T19:34:24.874Z,4.15
2019-06-26T19:36:56.806Z,4.12
2019-06-26T19:39:31.027Z,3.72
2019-06-26T19:42:35.778Z,3.72
2019-06-26T21:10:05.202Z,4.28
2019-06-26T21:13:32.329Z,4.20
2019-06-26T21:16:15.302Z,3.65
2019-06-26T21:22:47.842Z,4.25
2019-06-26T21:25:49.587Z,4.70
